Time;durP1;ratioP1;P1;durP2;ratioP2;P2;SDS_P1;SDS_P2;PMS_P1;PMS_P2;Temp;Humidity;BMP_temperature;BMP_pressure;BME280_temperature;BME280_humidity;BME280_pressure;Samples;Min_cycle;Max_cycle;Signal;HPM_P1;HPM_P2
2022/12/05 00:00:18;;;;;;;10.02;4.22;;;;;;;;;;5005132;28;20301;-66
2022/12/05 00:02:44;;;;;;;;;;;;;;;;;;5003861;28;20103;-66
2022/12/05 00:05:11;;;;;;;11.25;4.70;;;;;;;;;;4999656;28;19920;-66
2022/12/05 00:07:37;;;;;;;10.98;4.90;;;;;;;;;;5001040;28;20029;-66
2022/12/05 00:10:04;;;;;;;11.07;4.68;;;;;;;;;;4998731;28;20176;-66
2022/12/05 00:12:30;;;;;;;11.50;4.85;;;;;;;;;;5004397;28;20057;-66
2022/12/05 00:14:56;;;;;;;11.05;4.65;;;;;;;;;;5001222;28;20057;-66
2022/12/05 00:17:23;;;;;;;11.73;5.45;;;;;;;;;;5005203;28;20141;-66
2022/12/05 00:19:49;;;;;;;16.55;5.75;;;;;;;;;;5005009;28;20160;-66
2022/12/05 00:22:15;;;;;;;15.85;7.47;;;;;;;;;;4998146;28;20370;-66
2022/12/05 00:24:41;;;;;;;15.45;7.35;;;;;;;;;;5001006;28;20442;-65
2022/12/05 00:27:07;;;;;;;16.40;7.40;;;;;;;;;;5003221;28;20033;-66
2022/12/05 00:29:33;;;;;;;20.08;7.07;;;;;;;;;;5006644;28;20039;-65
2022/12/05 00:31:59;;;;;;;16.13;6.45;;;;;;;;;;5000914;28;20025;-65
2022/12/05 00:34:26;;;;;;;15.63;6.78;;;;;;;;;;5007205;28;20122;-65
2022/12/05 00:36:52;;;;;;;16.83;7.00;;;;;;;;;;5008762;28;20441;-65
2022/12/05 00:39:18;;;;;;;15.68;6.88;;;;;;;;;;5000812;28;20064;-64
2022/12/05 00:41:44;;;;;;;14.20;7.22;;;;;;;;;;4992429;28;20657;-64
2022/12/05 00:44:11;;;;;;;15.07;6.57;;;;;;;;;;4995663;28;20039;-65
2022/12/05 00:46:37;;;;;;;13.18;5.80;;;;;;;;;;4997814;28;20025;-64
2022/12/05 00:49:04;;;;;;;13.57;6.07;;;;;;;;;;4990421;28;20109;-65
2022/12/05 00:51:32;;;;;;;13.43;5.55;;;;;;;;;;4997653;28;20041;-65
2022/12/05 00:54:00;;;;;;;13.90;5.47;;;;;;;;;;4988708;28;20038;-65
2022/12/05 00:56:26;;;;;;;12.05;5.43;;;;;;;;;;4999229;28;20029;-66
2022/12/05 00:58:53;;;;;;;11.77;5.50;;;;;;;;;;4995549;28;20663;-66
2022/12/05 01:01:23;;;;;;;14.23;5.75;;;;;;;;;;5007597;28;20026;-65
2022/12/05 01:03:51;;;;;;;12.13;5.78;;;;;;;;;;5000815;28;20363;-65
2022/12/05 01:06:17;;;;;;;13.65;5.35;;;;;;;;;;4995710;28;20103;-65
2022/12/05 01:08:43;;;;;;;13.25;5.72;;;;;;;;;;5002062;28;20037;-65
2022/12/05 01:11:09;;;;;;;;;;;;;;;;;;4993053;28;20276;-65
2022/12/05 01:13:36;;;;;;;12.32;5.10;;;;;;;;;;5013258;28;19973;-64
2022/12/05 01:16:02;;;;;;;;;;;;;;;;;;5002551;28;20280;-65
2022/12/05 01:18:28;;;;;;;10.82;4.25;;;;;;;;;;4999374;28;19982;-66
2022/12/05 01:20:54;;;;;;;;;;;;;;;;;;4998292;28;20049;-65
2022/12/05 01:23:21;;;;;;;10.75;4.00;;;;;;;;;;4999880;28;19913;-65
2022/12/05 01:25:47;;;;;;;8.13;3.72;;;;;;;;;;5001461;28;20041;-65
2022/12/05 01:28:14;;;;;;;10.57;3.75;;;;;;;;;;4996255;28;20104;-65
2022/12/05 01:30:42;;;;;;;11.68;4.40;;;;;;;;;;5000780;28;20049;-65
2022/12/05 01:33:08;;;;;;;12.88;6.50;;;;;;;;;;4998006;28;20358;-65
2022/12/05 01:35:36;;;;;;;14.18;6.68;;;;;;;;;;5001527;28;20336;-64
2022/12/05 01:38:03;;;;;;;11.70;5.25;;;;;;;;;;4994411;28;20129;-65
2022/12/05 01:40:29;;;;;;;14.25;4.85;;;;;;;;;;4993665;28;20107;-65
2022/12/05 01:42:55;;;;;;;;;;;;;;;;;;4995634;28;20273;-64
2022/12/05 01:45:31;;;;;;;9.93;4.05;;;;;;;;;;4991009;28;20149;-65
2022/12/05 01:47:57;;;;;;;11.57;4.47;;;;;;;;;;4996735;28;20095;-65
2022/12/05 01:50:23;;;;;;;11.02;4.20;;;;;;;;;;5004510;28;20026;-65
2022/12/05 01:52:49;;;;;;;9.05;4.20;;;;;;;;;;5005336;28;20064;-65
2022/12/05 01:55:16;;;;;;;9.00;4.13;;;;;;;;;;4998862;28;20472;-65
2022/12/05 01:57:43;;;;;;;9.40;3.80;;;;;;;;;;5004166;28;20490;-64
2022/12/05 02:00:12;;;;;;;9.73;3.63;;;;;;;;;;5000532;28;20025;-64
2022/12/05 02:02:39;;;;;;;12.68;4.22;;;;;;;;;;5000164;28;20037;-64
2022/12/05 02:05:05;;;;;;;10.05;4.25;;;;;;;;;;4999316;28;20079;-64
2022/12/05 02:07:32;;;;;;;10.90;4.57;;;;;;;;;;4998765;28;20179;-64
2022/12/05 02:09:58;;;;;;;8.55;4.00;;;;;;;;;;5000137;28;20109;-65
2022/12/05 02:12:25;;;;;;;10.65;4.38;;;;;;;;;;4996509;28;20069;-64
2022/12/05 02:14:51;;;;;;;;;;;;;;;;;;4997308;28;20041;-64
2022/12/05 02:17:33;;;;;;;12.02;5.15;;;;;;;;;;5000924;28;19908;-66
2022/12/05 02:20:06;;;;;;;13.35;5.72;;;;;;;;;;4997116;28;20036;-65
2022/12/05 02:22:49;;;;;;;11.68;5.53;;;;;;;;;;5001530;28;20123;-64
2022/12/05 02:25:21;;;;;;;12.65;5.78;;;;;;;;;;4988400;28;20925;-64
2022/12/05 02:27:51;;;;;;;11.85;5.38;;;;;;;;;;5001359;28;20036;-64
2022/12/05 02:30:18;;;;;;;11.68;5.20;;;;;;;;;;4993804;28;20062;-64
2022/12/05 02:32:51;;;;;;;12.20;5.22;;;;;;;;;;4999127;28;20443;-64
2022/12/05 02:35:36;;;;;;;12.75;6.07;;;;;;;;;;5002827;28;20025;-64
2022/12/05 02:38:02;;;;;;;11.10;5.60;;;;;;;;;;4998397;28;20423;-64
2022/12/05 02:40:37;;;;;;;10.55;4.72;;;;;;;;;;4997019;28;20032;-64
2022/12/05 02:43:07;;;;;;;10.75;5.10;;;;;;;;;;4997924;28;20045;-64
2022/12/05 02:45:34;;;;;;;12.90;5.32;;;;;;;;;;5004734;28;20040;-64
2022/12/05 02:48:01;;;;;;;10.68;5.03;;;;;;;;;;4993223;28;20021;-64
2022/12/05 02:50:36;;;;;;;10.65;4.68;;;;;;;;;;5002295;28;20032;-64
2022/12/05 02:53:04;;;;;;;11.18;5.57;;;;;;;;;;4999531;28;20875;-64
2022/12/05 02:55:32;;;;;;;13.02;5.60;;;;;;;;;;4996365;28;20029;-64
2022/12/05 02:58:00;;;;;;;13.25;5.80;;;;;;;;;;4995707;28;20124;-64
2022/12/05 03:00:26;;;;;;;11.18;5.53;;;;;;;;;;4997809;28;20391;-64
2022/12/05 03:02:55;;;;;;;11.15;5.32;;;;;;;;;;4999181;28;20140;-64
2022/12/05 03:05:48;;;;;;;10.88;5.97;;;;;;;;;;5002617;28;20347;-64
2022/12/05 03:08:16;;;;;;;11.85;6.03;;;;;;;;;;4996296;28;20033;-64
2022/12/05 03:10:44;;;;;;;13.52;6.82;;;;;;;;;;5001312;28;20075;-64
2022/12/05 03:13:31;;;;;;;12.38;6.22;;;;;;;;;;4995721;28;21221;-64
2022/12/05 03:15:59;;;;;;;12.02;5.93;;;;;;;;;;4995993;28;20208;-64
2022/12/05 03:18:38;;;;;;;14.68;5.72;;;;;;;;;;4999426;28;20569;-64
2022/12/05 03:21:15;;;;;;;11.80;4.93;;;;;;;;;;5000788;28;20041;-64
2022/12/05 03:23:45;;;;;;;10.63;5.30;;;;;;;;;;4999145;28;20026;-64
2022/12/05 03:26:30;;;;;;;10.52;4.50;;;;;;;;;;4988735;28;20083;-64
2022/12/05 03:29:02;;;;;;;10.88;4.13;;;;;;;;;;5003543;28;20112;-64
2022/12/05 03:31:39;;;;;;;9.00;3.88;;;;;;;;;;5002153;28;20152;-64
2022/12/05 03:34:07;;;;;;;9.30;3.72;;;;;;;;;;4997897;28;20037;-64
2022/12/05 03:36:37;;;;;;;7.93;3.30;;;;;;;;;;5001899;28;20663;-64
2022/12/05 03:39:10;;;;;;;9.18;2.72;;;;;;;;;;4995672;28;20108;-64
2022/12/05 03:41:39;;;;;;;7.25;2.80;;;;;;;;;;5001400;28;20408;-64
2022/12/05 03:44:10;;;;;;;9.90;3.33;;;;;;;;;;4997185;28;20033;-64
2022/12/05 03:46:39;;;;;;;9.40;3.33;;;;;;;;;;4999467;28;20104;-64
2022/12/05 03:49:12;;;;;;;10.15;3.03;;;;;;;;;;4989083;28;20521;-64
2022/12/05 03:51:41;;;;;;;9.45;2.47;;;;;;;;;;4999336;28;20037;-64
2022/12/05 03:54:10;;;;;;;6.55;2.45;;;;;;;;;;4994886;28;20502;-64
2022/12/05 03:56:42;;;;;;;6.88;2.50;;;;;;;;;;4996894;28;20182;-64
2022/12/05 03:59:16;;;;;;;7.93;2.60;;;;;;;;;;4996330;28;20033;-64
2022/12/05 04:01:43;;;;;;;7.80;2.47;;;;;;;;;;4998439;28;20039;-64
2022/12/05 04:04:18;;;;;;;7.55;2.47;;;;;;;;;;4999922;28;20615;-64
2022/12/05 04:06:46;;;;;;;8.07;2.15;;;;;;;;;;5001427;28;20032;-64
2022/12/05 04:09:15;;;;;;;9.13;2.50;;;;;;;;;;4994892;28;20026;-64
2022/12/05 04:11:45;;;;;;;7.30;2.15;;;;;;;;;;4988749;28;20049;-65
2022/12/05 04:14:13;;;;;;;9.20;2.35;;;;;;;;;;4996590;28;21149;-64
2022/12/05 04:22:25;;;;;;;5.50;1.80;;;;;;;;;;4972008;28;21038;-64
2022/12/05 04:27:55;;;;;;;6.43;2.20;;;;;;;;;;4975995;28;20111;-64
2022/12/05 04:30:23;;;;;;;9.05;2.67;;;;;;;;;;4973670;28;20590;-64
2022/12/05 04:32:52;;;;;;;10.20;2.80;;;;;;;;;;4975053;28;20038;-64
2022/12/05 04:35:39;;;;;;;9.02;2.60;;;;;;;;;;4970015;28;20509;-64
2022/12/05 04:38:17;;;;;;;8.30;2.53;;;;;;;;;;4954440;28;20445;-64
2022/12/05 04:40:53;;;;;;;9.68;2.70;;;;;;;;;;4956919;28;20037;-64
2022/12/05 04:43:20;;;;;;;7.25;2.40;;;;;;;;;;4973999;28;20164;-64
2022/12/05 04:45:46;;;;;;;;;;;;;;;;;;4975224;28;20380;-65
2022/12/05 04:48:14;;;;;;;6.05;2.13;;;;;;;;;;4970930;28;19917;-65
2022/12/05 04:50:41;;;;;;;6.13;2.00;;;;;;;;;;4954529;28;20207;-65
2022/12/05 04:53:09;;;;;;;8.23;2.03;;;;;;;;;;4953927;28;20041;-65
2022/12/05 04:55:36;;;;;;;5.55;1.92;;;;;;;;;;4980722;28;20052;-64
2022/12/05 04:58:03;;;;;;;5.68;1.90;;;;;;;;;;4997201;28;20051;-65
2022/12/05 05:00:30;;;;;;;7.47;2.00;;;;;;;;;;4995394;28;20060;-65
2022/12/05 05:03:16;;;;;;;8.93;2.13;;;;;;;;;;4995860;28;20033;-65
2022/12/05 05:05:45;;;;;;;8.65;2.10;;;;;;;;;;5000666;28;20045;-65
2022/12/05 05:08:18;;;;;;;6.28;1.80;;;;;;;;;;4988205;28;21133;-65
2022/12/05 05:10:54;;;;;;;5.85;2.08;;;;;;;;;;5001498;28;20025;-65
2022/12/05 05:13:20;;;;;;;7.05;2.00;;;;;;;;;;4998001;28;20475;-65
2022/12/05 05:15:47;;;;;;;7.00;1.98;;;;;;;;;;4996910;28;20114;-65
2022/12/05 05:18:13;;;;;;;;;;;;;;;;;;4995806;28;20544;-65
2022/12/05 05:20:39;;;;;;;6.88;2.03;;;;;;;;;;4999287;28;20115;-65
2022/12/05 05:23:05;;;;;;;7.90;2.15;;;;;;;;;;4997861;28;20384;-65
2022/12/05 05:25:31;;;;;;;6.70;2.30;;;;;;;;;;4999188;28;20831;-65
2022/12/05 05:27:57;;;;;;;7.60;2.40;;;;;;;;;;4994990;28;20028;-65
2022/12/05 05:30:24;;;;;;;9.45;2.90;;;;;;;;;;4998117;28;20546;-65
2022/12/05 05:32:50;;;;;;;6.45;2.25;;;;;;;;;;4994818;28;20413;-65
2022/12/05 05:35:16;;;;;;;;;;;;;;;;;;4997972;28;20029;-64
2022/12/05 05:37:43;;;;;;;7.70;2.65;;;;;;;;;;4998833;28;20457;-65
2022/12/05 05:40:10;;;;;;;8.82;2.72;;;;;;;;;;4996663;28;20452;-65
2022/12/05 05:42:36;;;;;;;7.88;2.70;;;;;;;;;;4993473;28;20476;-64
2022/12/05 05:45:02;;;;;;;10.23;2.80;;;;;;;;;;4994123;28;20029;-64
2022/12/05 05:47:28;;;;;;;7.40;2.78;;;;;;;;;;4994653;28;20033;-67
2022/12/05 05:49:54;;;;;;;9.15;2.90;;;;;;;;;;4996481;28;20025;-66
2022/12/05 05:52:20;;;;;;;8.25;2.97;;;;;;;;;;4998714;28;20117;-65
2022/12/05 05:54:46;;;;;;;9.18;3.28;;;;;;;;;;4993010;28;20061;-65
2022/12/05 05:57:13;;;;;;;10.07;3.25;;;;;;;;;;4994831;28;20043;-66
2022/12/05 05:59:39;;;;;;;10.70;4.53;;;;;;;;;;4996939;28;20034;-64
2022/12/05 06:02:05;;;;;;;12.48;4.40;;;;;;;;;;4994568;28;20468;-65
2022/12/05 06:04:34;;;;;;;10.57;3.97;;;;;;;;;;4999230;28;20057;-66
2022/12/05 06:07:00;;;;;;;8.73;3.58;;;;;;;;;;4996680;28;20028;-66
2022/12/05 06:09:26;;;;;;;;;;;;;;;;;;4998984;28;20032;-66
2022/12/05 06:11:52;;;;;;;8.98;3.72;;;;;;;;;;4996787;28;19921;-66
2022/12/05 06:14:19;;;;;;;9.50;3.83;;;;;;;;;;4998494;28;20044;-66
2022/12/05 06:16:45;;;;;;;8.93;3.60;;;;;;;;;;5001096;28;20111;-66
2022/12/05 06:19:11;;;;;;;8.65;3.65;;;;;;;;;;4995131;28;23258;-66
2022/12/05 06:21:37;;;;;;;9.73;4.03;;;;;;;;;;5000629;28;20051;-64
2022/12/05 06:24:03;;;;;;;9.35;3.90;;;;;;;;;;4994590;28;20140;-66
2022/12/05 06:26:29;;;;;;;9.27;3.55;;;;;;;;;;4997075;28;20032;-65
2022/12/05 06:28:56;;;;;;;8.68;3.78;;;;;;;;;;4995161;28;20036;-65
2022/12/05 06:31:23;;;;;;;9.68;4.40;;;;;;;;;;4999287;28;20025;-65
2022/12/05 06:33:49;;;;;;;9.73;4.55;;;;;;;;;;4999709;28;20043;-65
2022/12/05 06:36:16;;;;;;;8.68;4.00;;;;;;;;;;4998402;28;20033;-65
2022/12/05 06:38:43;;;;;;;10.02;3.90;;;;;;;;;;5001956;28;20517;-65
2022/12/05 06:41:14;;;;;;;9.82;3.47;;;;;;;;;;4999327;28;20072;-65
2022/12/05 06:43:40;;;;;;;8.98;3.33;;;;;;;;;;4999081;28;20104;-65
2022/12/05 06:46:07;;;;;;;9.00;3.88;;;;;;;;;;4996282;28;20059;-65
2022/12/05 06:48:33;;;;;;;9.38;3.70;;;;;;;;;;5001576;28;20046;-65
2022/12/05 06:51:00;;;;;;;9.80;4.03;;;;;;;;;;4990121;28;20103;-65
2022/12/05 06:53:26;;;;;;;12.40;4.60;;;;;;;;;;5002047;28;20351;-65
2022/12/05 06:55:56;;;;;;;11.93;4.10;;;;;;;;;;4989169;28;20137;-67
2022/12/05 06:58:22;;;;;;;8.98;3.65;;;;;;;;;;4994076;28;20033;-65
2022/12/05 07:03:33;;;;;;;13.82;7.10;;;;;;;;;;4999881;28;20431;-64
2022/12/05 07:06:06;;;;;;;14.90;6.90;;;;;;;;;;5000573;28;20103;-65
2022/12/05 07:08:32;;;;;;;12.88;5.35;;;;;;;;;;5002246;28;20075;-64
2022/12/05 07:10:58;;;;;;;;;;;;;;;;;;4995927;28;20033;-64
2022/12/05 07:13:24;;;;;;;12.43;4.88;;;;;;;;;;5002103;28;20644;-67
2022/12/05 07:15:51;;;;;;;13.18;4.75;;;;;;;;;;5002154;28;20037;-64
2022/12/05 07:18:17;;;;;;;12.00;5.60;;;;;;;;;;4997963;28;20690;-64
2022/12/05 07:20:43;;;;;;;;;;;;;;;;;;4989379;28;20498;-64
2022/12/05 07:23:10;;;;;;;13.48;4.97;;;;;;;;;;4997019;28;19913;-64
2022/12/05 07:25:42;;;;;;;10.75;4.30;;;;;;;;;;4997130;28;20742;-64
2022/12/05 07:28:08;;;;;;;13.52;4.90;;;;;;;;;;4996222;28;20201;-64
2022/12/05 07:30:34;;;;;;;9.93;4.40;;;;;;;;;;5002048;28;20097;-64
2022/12/05 07:33:00;;;;;;;12.90;4.78;;;;;;;;;;4995871;28;20565;-64
2022/12/05 07:35:27;;;;;;;13.95;5.20;;;;;;;;;;4996888;28;20579;-64
2022/12/05 07:37:53;;;;;;;12.93;5.72;;;;;;;;;;4994868;28;20420;-65
2022/12/05 07:40:19;;;;;;;13.05;5.10;;;;;;;;;;4997712;28;20689;-64
2022/12/05 07:42:47;;;;;;;13.07;5.00;;;;;;;;;;4995619;28;20448;-64
2022/12/05 07:45:14;;;;;;;12.45;4.88;;;;;;;;;;4993103;28;20033;-64
2022/12/05 07:47:40;;;;;;;11.95;5.03;;;;;;;;;;4978801;28;20442;-63
2022/12/05 07:50:07;;;;;;;11.80;4.30;;;;;;;;;;4971423;28;21027;-67
2022/12/05 07:52:32;;;;;;;;;;;;;;;;;;5008763;28;20375;-64
2022/12/05 07:54:59;;;;;;;11.93;3.85;;;;;;;;;;5006267;28;19917;-64
2022/12/05 07:57:25;;;;;;;11.98;4.72;;;;;;;;;;5007480;28;20117;-65
2022/12/05 07:59:51;;;;;;;10.95;3.55;;;;;;;;;;5004552;28;20348;-64
2022/12/05 08:02:17;;;;;;;10.30;3.70;;;;;;;;;;5005066;28;20057;-65
2022/12/05 08:04:43;;;;;;;11.77;3.13;;;;;;;;;;5005572;28;20668;-64
2022/12/05 08:07:10;;;;;;;8.50;2.63;;;;;;;;;;5003514;28;20033;-65
2022/12/05 08:09:36;;;;;;;11.75;2.90;;;;;;;;;;5002609;28;20025;-64
2022/12/05 08:12:03;;;;;;;8.80;2.70;;;;;;;;;;5004327;28;20168;-66
2022/12/05 08:14:29;;;;;;;9.63;3.40;;;;;;;;;;5006364;28;20135;-66
2022/12/05 08:16:55;;;;;;;9.63;3.72;;;;;;;;;;5002149;28;20048;-66
2022/12/05 08:19:21;;;;;;;9.25;3.90;;;;;;;;;;5005164;28;20025;-65
2022/12/05 08:21:47;;;;;;;10.30;4.18;;;;;;;;;;5004971;28;20034;-66
2022/12/05 08:24:14;;;;;;;14.93;3.70;;;;;;;;;;4986832;28;20036;-66
2022/12/05 08:26:40;;;;;;;8.43;3.30;;;;;;;;;;4960651;28;20052;-64
2022/12/05 08:29:08;;;;;;;8.90;3.30;;;;;;;;;;4947075;28;20373;-66
2022/12/05 08:31:37;;;;;;;11.60;3.63;;;;;;;;;;4963204;28;20853;-66
2022/12/05 08:34:03;;;;;;;8.73;3.08;;;;;;;;;;4956607;28;20439;-66
2022/12/05 08:36:30;;;;;;;13.57;3.72;;;;;;;;;;4970901;28;20652;-66
2022/12/05 08:38:57;;;;;;;12.63;3.78;;;;;;;;;;4967647;28;21277;-66
2022/12/05 08:41:28;;;;;;;10.63;4.05;;;;;;;;;;4976157;28;20578;-67
2022/12/05 08:43:58;;;;;;;15.32;4.43;;;;;;;;;;4972005;28;20136;-66
2022/12/05 08:46:24;;;;;;;12.32;4.68;;;;;;;;;;4970434;28;20251;-67
2022/12/05 08:48:51;;;;;;;;;;;;;;;;;;4971466;28;20025;-66
2022/12/05 08:51:17;;;;;;;15.65;5.07;;;;;;;;;;4973183;28;20192;-66
2022/12/05 08:53:43;;;;;;;12.10;4.82;;;;;;;;;;4972391;28;20040;-64
2022/12/05 08:56:10;;;;;;;;;;;;;;;;;;4968439;28;20025;-67
2022/12/05 08:58:36;;;;;;;14.00;5.20;;;;;;;;;;4982758;28;20004;-66
2022/12/05 09:01:06;;;;;;;13.23;5.20;;;;;;;;;;4970111;28;20130;-66
2022/12/05 09:03:35;;;;;;;13.77;5.25;;;;;;;;;;5002255;28;20843;-66
2022/12/05 09:06:05;;;;;;;11.82;4.72;;;;;;;;;;4999688;28;20053;-66
2022/12/05 09:08:31;;;;;;;15.07;5.05;;;;;;;;;;4982973;28;20029;-67
2022/12/05 09:10:57;;;;;;;11.80;4.90;;;;;;;;;;4977146;28;20554;-66
2022/12/05 09:13:23;;;;;;;12.52;4.15;;;;;;;;;;4970622;28;20333;-67
2022/12/05 09:15:49;;;;;;;10.85;4.10;;;;;;;;;;4979837;28;20036;-67
2022/12/05 09:18:16;;;;;;;10.57;4.30;;;;;;;;;;4976780;28;20033;-66
2022/12/05 09:20:42;;;;;;;9.70;4.20;;;;;;;;;;4981648;28;20721;-66
2022/12/05 09:23:08;;;;;;;10.77;4.20;;;;;;;;;;4981093;28;20037;-66
2022/12/05 09:25:34;;;;;;;14.05;5.03;;;;;;;;;;4980277;28;20037;-66
2022/12/05 09:28:00;;;;;;;12.50;4.78;;;;;;;;;;4977313;28;20052;-67
2022/12/05 09:30:26;;;;;;;13.23;4.40;;;;;;;;;;4981654;28;20156;-66
2022/12/05 09:32:55;;;;;;;11.98;3.97;;;;;;;;;;4995649;28;20029;-67
2022/12/05 09:35:21;;;;;;;11.13;3.50;;;;;;;;;;4983887;28;20439;-68
2022/12/05 09:37:50;;;;;;;12.35;4.40;;;;;;;;;;4982318;28;20032;-67
2022/12/05 09:40:17;;;;;;;11.55;4.00;;;;;;;;;;4981419;28;20025;-67
2022/12/05 09:42:53;;;;;;;17.08;4.47;;;;;;;;;;4983893;28;20045;-67
2022/12/05 09:45:29;;;;;;;11.55;4.05;;;;;;;;;;4996288;28;20024;-66
2022/12/05 09:48:05;;;;;;;9.98;4.20;;;;;;;;;;5003832;28;20036;-68
2022/12/05 09:50:44;;;;;;;11.38;4.50;;;;;;;;;;4998345;28;20037;-67
2022/12/05 09:53:22;;;;;;;12.02;3.80;;;;;;;;;;4999781;28;20048;-66
2022/12/05 09:56:15;;;;;;;11.05;4.40;;;;;;;;;;4999579;28;20030;-67
2022/12/05 09:58:44;;;;;;;10.57;4.00;;;;;;;;;;4982086;28;20144;-66
2022/12/05 10:01:13;;;;;;;10.95;4.63;;;;;;;;;;4994189;28;20130;-65
2022/12/05 10:03:47;;;;;;;9.98;3.70;;;;;;;;;;5005747;28;20037;-68
2022/12/05 10:06:24;;;;;;;10.15;3.60;;;;;;;;;;4999904;28;20025;-66
2022/12/05 10:08:53;;;;;;;9.25;3.38;;;;;;;;;;5008233;28;20024;-66
2022/12/05 10:11:27;;;;;;;10.07;3.03;;;;;;;;;;5007239;28;20045;-67
2022/12/05 10:14:12;;;;;;;9.43;2.47;;;;;;;;;;5005834;28;20033;-67
2022/12/05 10:16:41;;;;;;;9.65;2.63;;;;;;;;;;5019052;28;20554;-66
2022/12/05 10:19:13;;;;;;;7.22;2.00;;;;;;;;;;5017528;28;20064;-66
2022/12/05 10:21:41;;;;;;;13.02;2.80;;;;;;;;;;5008242;28;20039;-68
2022/12/05 10:24:16;;;;;;;11.18;2.97;;;;;;;;;;4999510;28;20036;-66
2022/12/05 10:26:46;;;;;;;11.68;5.63;;;;;;;;;;5002174;28;20025;-66
2022/12/05 10:29:25;;;;;;;23.95;13.27;;;;;;;;;;4999715;28;20834;-66
2022/12/05 10:31:53;;;;;;;17.30;8.75;;;;;;;;;;5003715;28;20025;-68
2022/12/05 10:34:29;;;;;;;12.10;5.10;;;;;;;;;;5003701;28;20888;-67
2022/12/05 10:36:58;;;;;;;9.88;3.65;;;;;;;;;;4998154;28;20515;-68
2022/12/05 10:39:24;;;;;;;8.95;3.20;;;;;;;;;;5004710;28;20041;-68
2022/12/05 10:41:50;;;;;;;8.60;3.08;;;;;;;;;;5005220;28;20818;-68
2022/12/05 10:44:16;;;;;;;8.30;2.40;;;;;;;;;;5005392;28;20026;-68
2022/12/05 10:46:42;;;;;;;12.45;4.55;;;;;;;;;;4999036;28;20033;-66
2022/12/05 10:49:10;;;;;;;15.27;7.45;;;;;;;;;;4998146;28;20032;-66
2022/12/05 10:51:37;;;;;;;13.27;5.38;;;;;;;;;;5005506;28;20543;-67
2022/12/05 10:54:13;;;;;;;10.40;3.88;;;;;;;;;;4993978;28;20464;-67
2022/12/05 10:56:46;;;;;;;13.45;4.82;;;;;;;;;;4995095;28;20072;-66
2022/12/05 10:59:17;;;;;;;8.32;2.80;;;;;;;;;;5001850;28;20417;-67
2022/12/05 11:01:45;;;;;;;10.60;3.90;;;;;;;;;;5001445;28;20482;-67
2022/12/05 11:04:31;;;;;;;10.65;3.55;;;;;;;;;;5003131;28;20580;-67
2022/12/05 11:07:01;;;;;;;9.38;3.83;;;;;;;;;;5002288;28;20111;-66
2022/12/05 11:09:31;;;;;;;8.15;2.60;;;;;;;;;;5002741;28;20030;-68
2022/12/05 11:12:12;;;;;;;8.50;2.75;;;;;;;;;;4992033;28;20217;-68
2022/12/05 11:14:39;;;;;;;6.88;2.35;;;;;;;;;;5001317;28;20033;-68
2022/12/05 11:17:05;;;;;;;7.75;2.85;;;;;;;;;;4998533;28;20139;-68
2022/12/05 11:19:32;;;;;;;8.38;2.92;;;;;;;;;;4994567;28;20040;-69
2022/12/05 11:21:58;;;;;;;10.48;4.35;;;;;;;;;;4990746;28;20141;-65
2022/12/05 11:24:25;;;;;;;9.45;3.50;;;;;;;;;;4997269;28;20159;-67
2022/12/05 11:26:51;;;;;;;10.60;4.28;;;;;;;;;;4999544;28;20680;-68
2022/12/05 11:29:31;;;;;;;8.95;3.50;;;;;;;;;;5003989;28;20037;-68
2022/12/05 11:31:57;;;;;;;8.20;3.33;;;;;;;;;;4997011;28;20056;-68
2022/12/05 11:34:30;;;;;;;11.07;3.20;;;;;;;;;;4998651;28;20239;-66
2022/12/05 11:37:01;;;;;;;11.85;3.13;;;;;;;;;;4982830;28;20084;-67
2022/12/05 11:39:27;;;;;;;13.95;2.97;;;;;;;;;;4988283;28;20084;-69
2022/12/05 11:41:53;;;;;;;7.47;2.25;;;;;;;;;;5009096;28;20360;-68
2022/12/05 11:44:25;;;;;;;8.80;2.60;;;;;;;;;;4993593;28;20554;-67
2022/12/05 11:46:57;;;;;;;7.57;2.40;;;;;;;;;;4998862;28;20052;-67
2022/12/05 11:49:42;;;;;;;9.63;2.60;;;;;;;;;;5002205;28;20037;-67
2022/12/05 11:52:21;;;;;;;8.45;2.90;;;;;;;;;;4985854;28;20076;-67
2022/12/05 11:54:53;;;;;;;10.35;3.35;;;;;;;;;;4998861;28;20037;-66
2022/12/05 11:57:32;;;;;;;8.32;2.60;;;;;;;;;;5004067;28;20681;-66
2022/12/05 12:00:07;;;;;;;9.57;2.10;;;;;;;;;;4996631;28;20048;-66
2022/12/05 12:02:36;;;;;;;7.47;2.10;;;;;;;;;;4997314;28;20030;-66
2022/12/05 12:05:17;;;;;;;6.55;2.03;;;;;;;;;;4999224;28;20051;-67
2022/12/05 12:08:01;;;;;;;8.38;2.35;;;;;;;;;;5001057;28;20472;-66
2022/12/05 12:10:46;;;;;;;7.35;1.92;;;;;;;;;;4990934;28;20838;-66
2022/12/05 12:13:12;;;;;;;10.35;2.60;;;;;;;;;;4998161;28;20633;-68
2022/12/05 12:15:45;;;;;;;7.05;2.13;;;;;;;;;;4998914;28;20029;-66
2022/12/05 12:18:30;;;;;;;7.82;2.50;;;;;;;;;;4999608;28;20037;-67
2022/12/05 12:20:56;;;;;;;8.35;1.92;;;;;;;;;;4985439;28;20052;-67
2022/12/05 12:23:31;;;;;;;7.47;2.08;;;;;;;;;;4997868;28;20433;-66
2022/12/05 12:26:07;;;;;;;9.00;2.40;;;;;;;;;;4996355;28;20040;-66
2022/12/05 12:28:44;;;;;;;10.20;2.40;;;;;;;;;;4998179;28;20041;-66
2022/12/05 12:31:13;;;;;;;7.28;2.10;;;;;;;;;;5000800;28;20690;-66
2022/12/05 12:33:39;;;;;;;8.32;1.95;;;;;;;;;;5001938;28;20297;-66
2022/12/05 12:36:05;;;;;;;7.40;2.35;;;;;;;;;;4993382;28;20052;-66
2022/12/05 12:38:31;;;;;;;8.63;2.63;;;;;;;;;;4999541;28;20032;-68
2022/12/05 12:41:10;;;;;;;9.35;2.50;;;;;;;;;;5001015;28;20037;-67
2022/12/05 12:43:46;;;;;;;7.55;2.10;;;;;;;;;;5000465;28;20108;-68
2022/12/05 12:46:12;;;;;;;8.50;2.50;;;;;;;;;;4995910;28;21727;-66
2022/12/05 12:49:01;;;;;;;8.00;2.30;;;;;;;;;;5000545;28;20034;-66
2022/12/05 12:51:29;;;;;;;7.50;2.47;;;;;;;;;;4986391;28;20033;-66
2022/12/05 12:54:02;;;;;;;8.38;2.30;;;;;;;;;;5001677;28;20088;-67
2022/12/05 12:56:39;;;;;;;8.52;2.40;;;;;;;;;;5000971;28;20051;-67
2022/12/05 12:59:16;;;;;;;8.02;2.42;;;;;;;;;;4998951;28;20471;-66
2022/12/05 13:01:46;;;;;;;8.95;2.55;;;;;;;;;;5003327;28;20040;-64
2022/12/05 13:04:17;;;;;;;10.27;3.08;;;;;;;;;;4998529;28;20407;-66
2022/12/05 13:06:46;;;;;;;9.65;2.70;;;;;;;;;;4997449;28;20021;-67
2022/12/05 13:09:42;;;;;;;10.00;2.85;;;;;;;;;;5003012;28;20040;-66
2022/12/05 13:12:13;;;;;;;10.75;3.13;;;;;;;;;;4991106;28;20095;-67
2022/12/05 13:14:44;;;;;;;10.13;3.47;;;;;;;;;;5013211;28;20041;-67
2022/12/05 13:17:15;;;;;;;9.35;3.13;;;;;;;;;;5000303;28;20266;-66
2022/12/05 13:19:43;;;;;;;9.70;3.38;;;;;;;;;;4999916;28;20034;-66
2022/12/05 13:22:10;;;;;;;9.80;3.08;;;;;;;;;;4996212;28;20037;-66
2022/12/05 13:24:37;;;;;;;9.38;2.83;;;;;;;;;;5000655;28;20036;-66
2022/12/05 13:27:07;;;;;;;12.80;3.70;;;;;;;;;;5000899;28;20032;-68
2022/12/05 13:29:35;;;;;;;12.23;3.70;;;;;;;;;;5001383;28;20148;-67
2022/12/05 13:32:02;;;;;;;14.98;4.50;;;;;;;;;;5002821;28;20073;-67
2022/12/05 13:34:29;;;;;;;10.55;3.45;;;;;;;;;;4996421;28;20057;-67
2022/12/05 13:42:30;;;;;;;17.17;3.47;;;;;;;;;;5004846;28;20500;-66
2022/12/05 13:45:05;;;;;;;11.35;2.70;;;;;;;;;;5004511;28;20029;-66
2022/12/05 13:47:40;;;;;;;13.20;2.53;;;;;;;;;;5006968;28;20032;-66
2022/12/05 13:50:06;;;;;;;10.43;2.50;;;;;;;;;;5001424;28;20017;-67
2022/12/05 13:52:39;;;;;;;9.57;2.47;;;;;;;;;;5003712;28;20151;-66
2022/12/05 13:55:17;;;;;;;9.38;2.55;;;;;;;;;;5001788;28;20462;-66
2022/12/05 13:57:45;;;;;;;9.48;2.40;;;;;;;;;;5005664;28;20104;-66
2022/12/05 14:00:11;;;;;;;7.53;2.40;;;;;;;;;;4998484;28;20036;-66
2022/12/05 14:02:44;;;;;;;10.07;2.80;;;;;;;;;;5001066;28;20128;-66
2022/12/05 14:05:13;;;;;;;8.38;1.98;;;;;;;;;;4994525;28;20479;-66
2022/12/05 14:07:45;;;;;;;9.32;2.50;;;;;;;;;;5003437;28;20022;-66
2022/12/05 14:10:16;;;;;;;11.90;3.08;;;;;;;;;;4998546;28;20253;-66
2022/12/05 14:12:45;;;;;;;15.10;3.30;;;;;;;;;;5007210;28;20156;-66
2022/12/05 14:15:23;;;;;;;13.90;2.88;;;;;;;;;;5001792;28;20410;-66
2022/12/05 14:17:50;;;;;;;9.55;2.38;;;;;;;;;;5006205;28;20376;-65
2022/12/05 14:20:23;;;;;;;10.93;2.42;;;;;;;;;;5001044;28;20573;-65
2022/12/05 14:22:49;;;;;;;9.50;2.63;;;;;;;;;;5003034;28;20037;-65
2022/12/05 14:25:27;;;;;;;11.75;3.05;;;;;;;;;;4999274;28;20438;-65
2022/12/05 14:27:56;;;;;;;10.27;3.10;;;;;;;;;;5004191;28;20091;-65
2022/12/05 14:30:48;;;;;;;14.15;2.78;;;;;;;;;;5004056;28;20044;-66
2022/12/05 14:33:16;;;;;;;14.45;3.40;;;;;;;;;;5000004;28;20138;-64
2022/12/05 14:35:47;;;;;;;11.75;2.83;;;;;;;;;;5001211;28;20036;-64
2022/12/05 14:38:30;;;;;;;10.07;2.90;;;;;;;;;;5012931;28;20127;-65
2022/12/05 14:40:57;;;;;;;14.93;2.63;;;;;;;;;;4998025;28;20037;-64
2022/12/05 14:43:28;;;;;;;10.70;2.60;;;;;;;;;;5006090;28;20190;-64
2022/12/05 14:46:00;;;;;;;12.88;3.10;;;;;;;;;;5002920;28;20025;-66
2022/12/05 14:48:30;;;;;;;14.27;3.28;;;;;;;;;;5002207;28;20029;-66
2022/12/05 14:50:57;;;;;;;9.57;2.45;;;;;;;;;;5000486;28;20384;-66
2022/12/05 14:53:30;;;;;;;10.88;2.45;;;;;;;;;;4998811;28;20531;-66
2022/12/05 14:56:01;;;;;;;12.43;2.85;;;;;;;;;;4998336;28;20694;-64
2022/12/05 14:58:57;;;;;;;11.68;2.67;;;;;;;;;;5001417;28;20041;-66
2022/12/05 15:01:25;;;;;;;9.55;2.50;;;;;;;;;;4983153;28;20495;-68
2022/12/05 15:04:10;;;;;;;10.45;2.42;;;;;;;;;;5003025;28;20827;-66
2022/12/05 15:06:42;;;;;;;11.80;2.88;;;;;;;;;;5000203;28;20033;-66
2022/12/05 15:09:19;;;;;;;9.13;3.22;;;;;;;;;;4993495;28;20478;-64
2022/12/05 15:11:45;;;;;;;;;;;;;;;;;;5001149;28;20077;-65